PWSweather.com
Personal Weather Stations
Station Observations
INORDPAS37
Bondues, BonduesFR 59910

BonduesBonduesFR 59910

Lat: 50.7, Lon: 3.09

Elevation: 102

Station Type: Netatmo

http://bondues.meteoamikuze.com

Latest ConditionsUpdated 2:28:00 PM GMT+01:01 Sunday, Jun 16, 2019
Currently Today's Max Today's Min Today's Average
Temperature 70.9°F21.6°C 72.5°F22.5°C 56.1°F13.4°C 61.9°F16.6°C
Dew Point 54.9°F12.7°C 56.3°F13.5°C 43.9°F6.6°C 48.6°F9.2°C
Winds 4.9 mph SW7.9 kmh SW 4.9 mph -7.9 kmh - - 2.5 mph 4.0 kmh
Wind Gusts 9.8 mph15.8 kmh 9.8 mph15.8 kmh - -
Humidity 61% 71% 61% 67%
Pressure 30.12 in1020.0 mb 30.14 in1020.7 mb 30.04 in1017.3 mb -
Hour Temp Dew Point Humidity Winds Wind Gusts Pressure Precip Precip Rate Daily Precip Total
02:28 PM 70.9°F21.6°C 54.9°F12.7°C 61% 4.9 mph SW7.9 kmh SW 9.8 mph15.8 kmh 30.12 in1020.0 mb 0.00 in0.0 mm 0.00 in0.0 mm 0.00 in0.0 mm
02:07 PM 72.5°F22.5°C 56.3°F13.5°C 61% 2.5 mph WSW4.0 kmh WSW 8.1 mph13.0 kmh 30.12 in1020.0 mb 0.00 in0.0 mm 0.00 in0.0 mm 0.00 in0.0 mm
01:47 PM 72.0°F22.2°C 55.8°F13.2°C 61% 2.5 mph SSW4.0 kmh SSW 7.4 mph11.9 kmh 30.11 in1019.6 mb 0.00 in0.0 mm 0.00 in0.0 mm 0.00 in0.0 mm
01:27 PM 70.9°F21.6°C 54.9°F12.7°C 61% 1.3 mph W2.1 kmh W 5.6 mph9.0 kmh 30.11 in1019.6 mb 0.00 in0.0 mm 0.00 in0.0 mm 0.00 in0.0 mm
01:07 PM 70.3°F21.3°C 54.3°F12.4°C 61% 2.5 mph WSW4.0 kmh WSW 6.9 mph11.1 kmh 30.12 in1020.0 mb 0.00 in0.0 mm 0.00 in0.0 mm 0.00 in0.0 mm
12:47 PM 70.3°F21.3°C 54.7°F12.6°C 62% 2.5 mph WSW4.0 kmh WSW 6.9 mph11.1 kmh 30.12 in1020.0 mb 0.00 in0.0 mm 0.00 in0.0 mm 0.00 in0.0 mm
12:27 PM 68.7°F20.4°C 53.6°F12.0°C 63% 3.1 mph SW5.0 kmh SW 9.4 mph15.1 kmh 30.13 in1020.3 mb 0.00 in0.0 mm 0.00 in0.0 mm 0.00 in0.0 mm
12:07 PM 67.6°F19.8°C 52.5°F11.4°C 63% 3.1 mph SSW5.0 kmh SSW 8.1 mph13.0 kmh 30.12 in1020.0 mb 0.00 in0.0 mm 0.00 in0.0 mm 0.00 in0.0 mm
11:47 AM 67.6°F19.8°C 53.1°F11.7°C 64% 2.5 mph WSW4.0 kmh WSW 7.4 mph11.9 kmh 30.13 in1020.3 mb 0.00 in0.0 mm 0.00 in0.0 mm 0.00 in0.0 mm
11:27 AM 67.8°F19.9°C 53.2°F11.8°C 64% 2.5 mph SW4.0 kmh SW 4.9 mph7.9 kmh 30.13 in1020.3 mb 0.00 in0.0 mm 0.00 in0.0 mm 0.00 in0.0 mm
11:07 AM 66.0°F18.9°C 51.8°F11.0°C 65% 1.8 mph SW2.9 kmh SW 6.9 mph11.1 kmh 30.14 in1020.7 mb 0.00 in0.0 mm 0.00 in0.0 mm 0.00 in0.0 mm
10:47 AM 65.8°F18.8°C 52.2°F11.2°C 66% 3.8 mph SW6.1 kmh SW 8.1 mph13.0 kmh 30.13 in1020.3 mb 0.00 in0.0 mm 0.00 in0.0 mm 0.00 in0.0 mm
10:27 AM 66.0°F18.9°C 53.1°F11.7°C 68% 4.3 mph SSW6.9 kmh SSW 8.7 mph14.0 kmh 30.13 in1020.3 mb 0.00 in0.0 mm 0.00 in0.0 mm 0.00 in0.0 mm
10:07 AM 64.8°F18.2°C 52.7°F11.5°C 70% 1.8 mph SW2.9 kmh SW 6.9 mph11.1 kmh 30.12 in1020.0 mb 0.00 in0.0 mm 0.00 in0.0 mm 0.00 in0.0 mm
09:46 AM 63.1°F17.3°C 51.6°F10.9°C 71% 2.5 mph SW4.0 kmh SW 5.6 mph9.0 kmh 30.12 in1020.0 mb 0.00 in0.0 mm 0.00 in0.0 mm 0.00 in0.0 mm
09:27 AM 61.0°F16.1°C 49.5°F9.7°C 71% 1.8 mph SSW2.9 kmh SSW 5.6 mph9.0 kmh 30.12 in1020.0 mb 0.00 in0.0 mm 0.00 in0.0 mm 0.00 in0.0 mm
09:06 AM 59.7°F15.4°C 48.4°F9.1°C 71% 2.5 mph SSW4.0 kmh SSW 3.8 mph6.1 kmh 30.11 in1019.6 mb 0.00 in0.0 mm 0.00 in0.0 mm 0.00 in0.0 mm
08:47 AM 59.7°F15.4°C 48.4°F9.1°C 71% 2.5 mph SSW4.0 kmh SSW 5.6 mph9.0 kmh 30.12 in1020.0 mb 0.00 in0.0 mm 0.00 in0.0 mm 0.00 in0.0 mm
08:26 AM 59.9°F15.5°C 48.4°F9.1°C 71% 3.1 mph SW5.0 kmh SW 8.1 mph13.0 kmh 30.12 in1020.0 mb 0.00 in0.0 mm 0.00 in0.0 mm 0.00 in0.0 mm
08:07 AM 59.5°F15.3°C 48.2°F9.0°C 71% 2.5 mph SW4.0 kmh SW 6.9 mph11.1 kmh 30.11 in1019.6 mb 0.00 in0.0 mm 0.00 in0.0 mm 0.00 in0.0 mm
07:46 AM 59.0°F15.0°C 47.7°F8.7°C 71% 2.5 mph SW4.0 kmh SW 6.9 mph11.1 kmh 30.11 in1019.6 mb 0.00 in0.0 mm 0.00 in0.0 mm 0.00 in0.0 mm
07:26 AM 58.8°F14.9°C 46.9°F8.3°C 70% 2.5 mph SSW4.0 kmh SSW 7.4 mph11.9 kmh 30.10 in1019.3 mb 0.00 in0.0 mm 0.00 in0.0 mm 0.00 in0.0 mm
07:06 AM 58.5°F14.7°C 46.8°F8.2°C 70% 2.5 mph SSW4.0 kmh SSW 6.9 mph11.1 kmh 30.09 in1019.0 mb 0.00 in0.0 mm 0.00 in0.0 mm 0.00 in0.0 mm
06:46 AM 58.1°F14.5°C 46.4°F8.0°C 70% 3.1 mph SSW5.0 kmh SSW 6.9 mph11.1 kmh 30.09 in1019.0 mb 0.00 in0.0 mm 0.00 in0.0 mm 0.00 in0.0 mm
06:26 AM 57.9°F14.4°C 46.2°F7.9°C 70% 2.5 mph SW4.0 kmh SW 5.6 mph9.0 kmh 30.08 in1018.6 mb 0.00 in0.0 mm 0.00 in0.0 mm 0.00 in0.0 mm
06:06 AM 57.6°F14.2°C 45.9°F7.7°C 70% 2.5 mph S4.0 kmh S 5.6 mph9.0 kmh 30.07 in1018.3 mb 0.00 in0.0 mm 0.00 in0.0 mm 0.00 in0.0 mm
05:46 AM 57.2°F14.0°C 45.5°F7.5°C 70% 3.1 mph SSW5.0 kmh SSW 7.4 mph11.9 kmh 30.07 in1018.3 mb 0.00 in0.0 mm 0.00 in0.0 mm 0.00 in0.0 mm
05:26 AM 56.8°F13.8°C 45.1°F7.3°C 70% 2.5 mph S4.0 kmh S 6.9 mph11.1 kmh 30.06 in1017.9 mb 0.00 in0.0 mm 0.00 in0.0 mm 0.00 in0.0 mm
05:05 AM 56.5°F13.6°C 44.8°F7.1°C 70% 1.8 mph S2.9 kmh S 4.9 mph7.9 kmh 30.06 in1017.9 mb 0.00 in0.0 mm 0.00 in0.0 mm 0.00 in0.0 mm
04:46 AM 56.1°F13.4°C 44.1°F6.7°C 69% 2.5 mph S4.0 kmh S 4.3 mph6.9 kmh 30.07 in1018.3 mb 0.00 in0.0 mm 0.00 in0.0 mm 0.00 in0.0 mm
04:26 AM 56.3°F13.5°C 43.9°F6.6°C 68% 2.5 mph SSW4.0 kmh SSW 5.6 mph9.0 kmh 30.06 in1017.9 mb 0.00 in0.0 mm 0.00 in0.0 mm 0.00 in0.0 mm
04:06 AM 56.7°F13.7°C 44.2°F6.8°C 68% 3.1 mph SSW5.0 kmh SSW 6.9 mph11.1 kmh 30.06 in1017.9 mb 0.00 in0.0 mm 0.00 in0.0 mm 0.00 in0.0 mm
03:46 AM 57.2°F14.0°C 44.2°F6.8°C 67% 2.5 mph S4.0 kmh S 5.6 mph9.0 kmh 30.05 in1017.6 mb 0.00 in0.0 mm 0.00 in0.0 mm 0.00 in0.0 mm
03:25 AM 57.6°F14.2°C 44.6°F7.0°C 67% 2.5 mph SSW4.0 kmh SSW 6.9 mph11.1 kmh 30.05 in1017.6 mb 0.00 in0.0 mm 0.00 in0.0 mm 0.00 in0.0 mm
03:06 AM 57.9°F14.4°C 44.6°F7.0°C 66% 1.8 mph S2.9 kmh S 5.6 mph9.0 kmh 30.05 in1017.6 mb 0.00 in0.0 mm 0.00 in0.0 mm 0.00 in0.0 mm
02:45 AM 58.1°F14.5°C 44.4°F6.9°C 65% 2.5 mph S4.0 kmh S 4.9 mph7.9 kmh 30.05 in1017.6 mb 0.00 in0.0 mm 0.00 in0.0 mm 0.00 in0.0 mm
02:26 AM 58.5°F14.7°C 44.6°F7.0°C 65% 2.5 mph SSW4.0 kmh SSW 6.9 mph11.1 kmh 30.05 in1017.6 mb 0.00 in0.0 mm 0.00 in0.0 mm 0.00 in0.0 mm
02:05 AM 58.8°F14.9°C 45.0°F7.2°C 65% 1.8 mph SSW2.9 kmh SSW 4.3 mph6.9 kmh 30.04 in1017.3 mb 0.00 in0.0 mm 0.00 in0.0 mm 0.00 in0.0 mm
01:45 AM 59.4°F15.2°C 45.1°F7.3°C 64% 1.8 mph SW2.9 kmh SW 3.8 mph6.1 kmh 30.04 in1017.3 mb 0.00 in0.0 mm 0.00 in0.0 mm 0.00 in0.0 mm
01:25 AM 59.4°F15.2°C 45.1°F7.3°C 64% 1.8 mph SSW2.9 kmh SSW 4.3 mph6.9 kmh 30.05 in1017.6 mb 0.00 in0.0 mm 0.00 in0.0 mm 0.00 in0.0 mm
01:05 AM 59.9°F15.5°C 45.7°F7.6°C 64% 1.8 mph S2.9 kmh S 3.8 mph6.1 kmh 30.04 in1017.3 mb 0.00 in0.0 mm 0.00 in0.0 mm 0.00 in0.0 mm
12:46 AM 60.4°F15.8°C 45.7°F7.6°C 63% 1.3 mph SSW2.1 kmh SSW 3.1 mph5.0 kmh 30.04 in1017.3 mb 0.00 in0.0 mm 0.00 in0.0 mm 0.00 in0.0 mm
12:25 AM 61.0°F16.1°C 46.2°F7.9°C 63% 1.3 mph S2.1 kmh S 3.8 mph6.1 kmh 30.04 in1017.3 mb 0.00 in0.0 mm 0.00 in0.0 mm 0.00 in0.0 mm
12:06 AM 61.2°F16.2°C 46.4°F8.0°C 63% 1.8 mph SW2.9 kmh SW 5.6 mph9.0 kmh 30.04 in1017.3 mb 0.00 in0.0 mm 0.00 in0.0 mm 0.00 in0.0 mm